Zapata, TX

07:20 PM CDT am 24. September 2016 (GMT -0500)
Zapata | | Change Station

Höhe 423 ft 26.97 °N, 99.25 °W | Updated 5 minutes ago

Clear
Heiter
95 °F
gefühlte 95 °F
N
9
Wind Wechselnd Wind aus Ost-Südost
Gusts 21 mph

Heute
Max. -- | schwach -- °F
--% Regenrisiko
Gestern
Max. -- | schwach -- °F
Precip. -- inch
Druck 29.78 inch
Sichtweite 10.0 Meilen
Wolken Heiter
Hitzeindex 95 °F
Taupunkt 60 °F
Feuchtigkeit 32%
Regen 0.00 inch
Schneehöhe Nicht verfügbar..
7:26 AM 7:30 PM
Letztes Viertel, 33% visible
METAR KAPY 250015Z AUTO 12008G18KT 10SM CLR 35/15 A2978 RMK AO2 T03480157
Druck 29.78 inch
Sichtweite 10.0 Meilen
Wolken Heiter
Hitzeindex 95 °F
Taupunkt 60 °F
Feuchtigkeit 32%
Regen 0.00 inch
Schneehöhe Nicht verfügbar..
7:26 AM 7:30 PM
Letztes Viertel, 33% visible
METAR KAPY 250015Z AUTO 12008G18KT 10SM CLR 35/15 A2978 RMK AO2 T03480157

10-Day Weather Forecast

Almanac

Astronomie

Sep. 24, 2016 Aufgang Untergang
Genaue Zeit
Bürgerliche Dämmerung
Nautische Dämmerung
Astronomische Dämmerung
Mond
Länge des sichtbaren Lichts
Tageslänge
Tomorrow will be .
, % of the Moon is Illuminated

Heutige Rekorde

State Highs State Lows

Community

WunderPhotos

Upload Photos

1,941,477 Fotos hochgeladen!

WunderBlog® & News

Nearby

Luftqualität

  Luftqualität LQ Index Schadstoff
Not available.

Schneehöhe

Station Depth Höhe

Erdbebenaktivität

Stadt Distance Mag. Time & Date
Minimum magnitude displayed is 2.5.

küstennahe Wassertemperaturen

Ort Temperatur

Stations

Wetterstationen in der Umgebung

Stationsstandort Temp. Windchill Taupunkt Feuchtigkeit Wind Precip. Höhe Aktualisiert Art
                   

Watches & Warnings

There are currently no watches in effect.